Time;durP1;ratioP1;P1;durP2;ratioP2;P2;SDS_P1;SDS_P2;PMS_P1;PMS_P2;Temp;Humidity;BMP_temperature;BMP_pressure;BME280_temperature;BME280_humidity;BME280_pressure;Samples;Min_cycle;Max_cycle;Signal;HPM_P1;HPM_P2
2023/07/30 00:00:44;;;;;;;1.52;1.42;;;17.70;73.60;;;;;;7392303;19;20019;-70
2023/07/30 00:03:14;;;;;;;1.95;1.35;;;17.70;78.30;;;;;;7393563;19;20553;-72
2023/07/30 00:05:54;;;;;;;3.17;1.35;;;17.70;71.40;;;;;;7392954;19;20042;-70
2023/07/30 00:08:25;;;;;;;1.85;1.15;;;17.60;70.70;;;;;;7393381;19;20156;-70
2023/07/30 00:10:55;;;;;;;1.58;1.17;;;17.60;73.10;;;;;;7391738;19;20018;-71
2023/07/30 00:13:25;;;;;;;3.17;1.30;;;17.60;76.40;;;;;;7392975;19;20010;-72
2023/07/30 00:15:55;;;;;;;1.30;1.10;;;17.50;72.60;;;;;;7391585;19;20031;-71
2023/07/30 00:18:25;;;;;;;2.60;1.08;;;17.50;74.70;;;;;;7391372;19;20522;-71
2023/07/30 00:20:57;;;;;;;2.83;1.10;;;17.50;75.00;;;;;;7391275;19;20033;-71
2023/07/30 00:23:27;;;;;;;2.83;1.20;;;17.50;73.60;;;;;;7393376;19;20011;-71
2023/07/30 00:25:57;;;;;;;1.95;0.82;;;17.50;72.20;;;;;;7395034;19;20538;-72
2023/07/30 00:28:27;;;;;;;1.80;1.20;;;17.50;74.60;;;;;;7394559;19;20010;-70
2023/07/30 00:30:57;;;;;;;1.23;0.93;;;17.50;73.30;;;;;;7392616;19;20014;-70
2023/07/30 00:33:27;;;;;;;1.17;0.93;;;17.50;67.70;;;;;;7388612;19;20003;-71
2023/07/30 00:35:59;;;;;;;2.03;1.02;;;17.50;68.40;;;;;;7392957;19;20023;-70
2023/07/30 00:38:29;;;;;;;1.23;0.85;;;17.60;71.70;;;;;;7392676;19;20014;-71
2023/07/30 00:40:59;;;;;;;1.23;1.10;;;17.50;67.50;;;;;;7390883;19;20010;-70
2023/07/30 00:43:29;;;;;;;1.00;0.90;;;17.50;60.70;;;;;;7392253;19;20467;-71
2023/07/30 00:45:59;;;;;;;1.02;0.80;;;17.50;60.60;;;;;;7393446;19;20014;-72
2023/07/30 00:48:29;;;;;;;1.05;0.80;;;17.40;58.90;;;;;;7392558;19;20078;-71
2023/07/30 00:51:02;;;;;;;6.53;1.25;;;17.50;57.20;;;;;;7388936;19;20042;-71
2023/07/30 00:53:33;;;;;;;1.55;0.90;;;17.50;54.70;;;;;;7391675;19;20014;-72
2023/07/30 00:56:03;;;;;;;2.17;1.00;;;17.50;52.80;;;;;;7391808;19;20038;-72
2023/07/30 00:58:33;;;;;;;1.70;1.15;;;17.50;53.20;;;;;;7390397;19;20019;-72
2023/07/30 01:01:03;;;;;;;2.22;0.98;;;17.60;55.40;;;;;;7390267;19;20039;-71
2023/07/30 01:03:34;;;;;;;2.67;1.55;;;17.60;52.40;;;;;;7391221;19;20348;-72
2023/07/30 01:06:07;;;;;;;1.80;1.20;;;17.60;51.20;;;;;;7391929;19;20018;-71
2023/07/30 01:08:38;;;;;;;4.90;1.10;;;17.60;47.20;;;;;;7391692;19;20105;-71
2023/07/30 01:11:09;;;;;;;3.45;1.20;;;17.60;46.20;;;;;;7389437;19;20014;-71
2023/07/30 01:13:41;;;;;;;4.03;1.33;;;17.60;46.20;;;;;;7390870;19;20019;-70
2023/07/30 01:16:11;;;;;;;3.25;1.45;;;17.50;48.40;;;;;;7390970;19;20046;-71
2023/07/30 01:18:41;;;;;;;3.92;1.83;;;17.60;54.80;;;;;;7391193;19;20011;-71
2023/07/30 01:21:13;;;;;;;5.63;1.48;;;17.70;58.30;;;;;;7389559;19;20015;-71
2023/07/30 01:23:43;;;;;;;2.60;1.77;;;17.70;55.10;;;;;;7389260;19;20010;-71
2023/07/30 01:26:18;;;;;;;3.20;1.25;;;17.70;56.00;;;;;;7391176;19;20007;-71
2023/07/30 01:28:52;;;;;;;3.30;1.83;;;17.70;59.20;;;;;;7390725;19;20018;-72
2023/07/30 01:31:24;;;;;;;2.40;1.52;;;17.70;61.50;;;;;;7388954;19;20511;-71
2023/07/30 01:33:57;;;;;;;2.03;1.48;;;17.70;60.60;;;;;;7390257;19;20506;-71
2023/07/30 01:36:31;;;;;;;2.50;1.50;;;17.60;63.70;;;;;;7390660;19;20011;-71
2023/07/30 01:39:02;;;;;;;1.58;1.40;;;17.50;65.90;;;;;;7391082;19;20357;-72
2023/07/30 01:41:32;;;;;;;2.17;1.40;;;17.50;70.80;;;;;;7388989;19;20045;-72
2023/07/30 01:44:02;;;;;;;4.63;1.52;;;17.50;72.20;;;;;;7389213;19;20022;-72
2023/07/30 01:46:32;;;;;;;2.80;1.83;;;17.50;76.20;;;;;;7393222;19;20018;-72
2023/07/30 01:49:02;;;;;;;2.50;1.67;;;17.50;77.50;;;;;;7390761;19;20014;-72
2023/07/30 01:51:35;;;;;;;5.13;1.60;;;17.50;77.60;;;;;;7388799;19;20027;-71
2023/07/30 01:54:05;;;;;;;3.45;1.70;;;17.50;80.80;;;;;;7389869;19;20014;-72
2023/07/30 01:56:35;;;;;;;5.25;2.00;;;17.60;84.10;;;;;;7389904;19;20061;-72
2023/07/30 01:59:05;;;;;;;2.60;1.73;;;17.50;84.10;;;;;;7389633;19;20022;-72
2023/07/30 02:01:35;;;;;;;3.30;1.73;;;17.50;83.70;;;;;;7388139;19;20478;-72
2023/07/30 02:04:06;;;;;;;4.25;2.30;;;17.50;83.90;;;;;;7391169;19;20089;-71
2023/07/30 02:06:38;;;;;;;3.80;2.55;;;17.50;87.60;;;;;;7392299;19;20018;-70
2023/07/30 02:09:08;;;;;;;3.47;2.20;;;17.50;88.40;;;;;;7392189;19;20014;-71
2023/07/30 02:11:38;;;;;;;4.40;1.90;;;17.50;86.50;;;;;;7390990;19;20450;-71
2023/07/30 02:14:08;;;;;;;4.30;2.30;;;17.50;85.70;;;;;;7390057;19;20014;-71
2023/07/30 02:16:38;;;;;;;3.17;2.20;;;17.60;86.40;;;;;;7391354;19;20011;-71
2023/07/30 02:19:08;;;;;;;3.47;2.40;;;17.50;85.50;;;;;;7391226;19;20011;-71
2023/07/30 02:21:42;;;;;;;3.83;2.13;;;17.60;88.70;;;;;;7388436;19;20019;-71
2023/07/30 02:24:12;;;;;;;4.90;2.58;;;17.60;89.70;;;;;;7389234;19;20023;-71
2023/07/30 02:26:42;;;;;;;3.67;2.15;;;17.60;90.30;;;;;;7389970;19;20518;-72
2023/07/30 02:29:12;;;;;;;3.58;2.15;;;17.60;90.70;;;;;;7389390;19;20353;-71
2023/07/30 02:31:42;;;;;;;3.85;2.10;;;17.50;87.90;;;;;;7389705;19;20031;-71
2023/07/30 02:34:12;;;;;;;4.55;2.17;;;17.50;87.90;;;;;;7390858;19;20042;-71
2023/07/30 02:36:45;;;;;;;4.18;2.10;;;17.50;89.60;;;;;;7390459;19;20014;-71
2023/07/30 02:39:15;;;;;;;3.63;2.10;;;17.50;89.40;;;;;;7390831;19;20014;-71
2023/07/30 02:41:45;;;;;;;6.50;2.42;;;17.50;90.00;;;;;;7386879;19;20368;-71
2023/07/30 02:44:14;;;;;;;2.20;1.70;;;17.50;89.60;;;;;;7388327;19;20368;-71
2023/07/30 02:46:44;;;;;;;1.98;1.67;;;17.50;89.00;;;;;;7391643;19;20470;-71
2023/07/30 02:49:14;;;;;;;4.65;2.00;;;17.40;86.90;;;;;;7388128;19;20379;-71
2023/07/30 02:51:48;;;;;;;3.50;2.00;;;17.40;87.20;;;;;;7386189;19;20479;-71
2023/07/30 02:54:20;;;;;;;2.80;2.10;;;17.40;86.00;;;;;;7387699;19;20092;-71
2023/07/30 02:56:50;;;;;;;2.70;1.90;;;17.40;87.40;;;;;;7392896;19;20022;-71
2023/07/30 02:59:20;;;;;;;2.20;1.90;;;17.40;86.90;;;;;;7395514;19;20027;-71
2023/07/30 03:01:50;;;;;;;3.80;2.20;;;17.40;86.10;;;;;;7395949;19;20442;-71
2023/07/30 03:04:20;;;;;;;4.55;2.13;;;17.40;87.90;;;;;;7395509;19;20081;-70
2023/07/30 03:06:52;;;;;;;3.75;2.25;;;17.30;87.70;;;;;;7395780;19;20031;-71
2023/07/30 03:09:22;;;;;;;3.38;2.30;;;17.20;88.30;;;;;;7395146;19;20038;-71
2023/07/30 03:11:52;;;;;;;3.40;2.03;;;17.30;90.90;;;;;;7393002;19;20027;-71
2023/07/30 03:14:22;;;;;;;2.15;1.70;;;17.40;90.60;;;;;;7395185;19;20037;-71
2023/07/30 03:16:52;;;;;;;4.00;2.72;;;17.30;90.30;;;;;;7395365;19;20022;-71
2023/07/30 03:19:22;;;;;;;5.07;2.25;;;17.30;91.50;;;;;;7394642;19;20025;-71
2023/07/30 03:21:55;;;;;;;3.42;2.28;;;17.30;91.70;;;;;;7395392;19;20024;-71
2023/07/30 03:24:25;;;;;;;3.45;2.15;;;17.30;91.90;;;;;;7392390;19;20427;-71
2023/07/30 03:26:55;;;;;;;4.97;2.78;;;17.40;92.40;;;;;;7395058;19;20024;-71
2023/07/30 03:29:24;;;;;;;2.50;2.28;;;17.40;92.30;;;;;;7394315;19;20011;-71
2023/07/30 03:31:54;;;;;;;2.50;2.20;;;17.50;92.50;;;;;;7394063;19;20011;-71
2023/07/30 03:34:24;;;;;;;5.03;2.75;;;17.50;91.70;;;;;;7394002;19;20006;-71
2023/07/30 03:36:57;;;;;;;4.82;2.45;;;17.50;91.40;;;;;;7394209;19;20018;-71
2023/07/30 03:39:30;;;;;;;2.72;2.30;;;17.50;90.80;;;;;;7393892;19;20014;-71
2023/07/30 03:42:00;;;;;;;3.65;2.45;;;17.50;91.40;;;;;;7394531;19;20018;-71
2023/07/30 03:44:30;;;;;;;5.22;2.42;;;17.60;91.10;;;;;;7393832;19;20015;-71
2023/07/30 03:46:59;;;;;;;2.65;2.42;;;17.60;89.60;;;;;;7398187;19;20035;-71
2023/07/30 03:49:29;;;;;;;3.50;2.38;;;17.60;89.30;;;;;;7391864;19;20019;-71
2023/07/30 03:52:02;;;;;;;4.68;2.50;;;17.60;90.10;;;;;;7394064;19;20082;-71
2023/07/30 03:54:32;;;;;;;4.43;2.30;;;17.60;89.90;;;;;;7393493;19;20010;-71
2023/07/30 03:57:02;;;;;;;2.72;2.22;;;17.70;90.60;;;;;;7393776;19;20413;-71
2023/07/30 03:59:32;;;;;;;4.55;2.95;;;17.70;88.80;;;;;;7393167;19;20393;-71
2023/07/30 04:02:02;;;;;;;5.28;2.53;;;17.70;87.40;;;;;;7393387;19;20018;-71
2023/07/30 04:04:31;;;;;;;2.85;2.45;;;17.80;86.00;;;;;;7392886;19;20011;-71
2023/07/30 04:07:04;;;;;;;5.53;2.40;;;17.80;84.70;;;;;;7393383;19;20010;-71
2023/07/30 04:09:34;;;;;;;3.72;2.60;;;17.80;84.60;;;;;;7391527;19;20039;-70
2023/07/30 04:12:04;;;;;;;4.93;2.30;;;17.90;82.30;;;;;;7392941;19;20026;-70
2023/07/30 04:14:34;;;;;;;4.35;2.67;;;17.80;81.00;;;;;;7392881;19;20014;-70
2023/07/30 04:17:04;;;;;;;5.80;2.58;;;17.90;82.30;;;;;;7393473;19;20034;-70
2023/07/30 04:19:34;;;;;;;3.33;2.70;;;18.00;84.40;;;;;;7392577;19;20015;-70
2023/07/30 04:22:06;;;;;;;3.55;2.83;;;18.00;85.30;;;;;;7393135;19;20018;-70
2023/07/30 04:24:36;;;;;;;5.13;3.00;;;17.90;85.80;;;;;;7392378;19;20105;-70
2023/07/30 04:27:07;;;;;;;5.90;2.90;;;17.90;88.00;;;;;;7393430;19;20027;-70
2023/07/30 04:29:36;;;;;;;3.35;2.80;;;17.90;88.00;;;;;;7392044;19;20374;-70
2023/07/30 04:32:08;;;;;;;3.55;2.95;;;17.90;90.50;;;;;;7392757;19;20276;-71
2023/07/30 04:34:38;;;;;;;5.85;3.13;;;17.80;91.00;;;;;;7390049;19;20023;-70
2023/07/30 04:37:10;;;;;;;3.30;2.67;;;17.80;92.90;;;;;;7392299;19;20019;-71
2023/07/30 04:39:40;;;;;;;4.47;2.92;;;17.80;94.00;;;;;;7391943;19;20010;-70
2023/07/30 04:42:12;;;;;;;3.83;2.97;;;17.80;93.30;;;;;;7392466;19;20028;-70
2023/07/30 04:44:42;;;;;;;3.35;2.42;;;17.80;94.90;;;;;;7390477;19;20055;-70
2023/07/30 04:47:12;;;;;;;3.53;2.70;;;17.90;95.30;;;;;;7396279;19;20014;-70
2023/07/30 04:49:42;;;;;;;3.92;3.03;;;17.90;95.90;;;;;;7391085;19;20010;-70
2023/07/30 04:52:15;;;;;;;3.88;2.53;;;17.90;95.40;;;;;;7392319;19;20010;-70
2023/07/30 04:54:45;;;;;;;4.78;3.03;;;18.00;94.90;;;;;;7389812;19;20014;-71
2023/07/30 04:57:15;;;;;;;9.02;3.40;;;18.10;95.60;;;;;;7392433;19;20041;-70
2023/07/30 04:59:45;;;;;;;3.55;2.72;;;18.10;94.30;;;;;;7390948;19;20093;-70
2023/07/30 05:02:15;;;;;;;5.32;3.17;;;18.10;94.40;;;;;;7391486;19;20038;-70
2023/07/30 05:04:45;;;;;;;4.63;2.72;;;18.10;93.00;;;;;;7391221;19;20023;-70
2023/07/30 05:07:17;;;;;;;4.13;2.58;;;18.10;93.60;;;;;;7391987;19;20360;-70
2023/07/30 05:09:47;;;;;;;4.00;2.60;;;18.10;94.00;;;;;;7390697;19;20366;-70
2023/07/30 05:12:17;;;;;;;3.10;2.67;;;18.00;92.00;;;;;;7391241;19;20031;-70
2023/07/30 05:14:47;;;;;;;2.60;2.40;;;18.00;92.80;;;;;;7387113;19;20019;-71
2023/07/30 05:17:17;;;;;;;3.50;3.05;;;17.90;93.10;;;;;;7390996;19;20041;-71
2023/07/30 05:19:47;;;;;;;3.75;2.38;;;17.90;93.80;;;;;;7389191;19;20015;-71
2023/07/30 05:22:19;;;;;;;3.20;2.45;;;17.80;94.00;;;;;;7391369;19;20019;-70
2023/07/30 05:24:49;;;;;;;2.45;2.20;;;17.70;91.50;;;;;;7389993;19;20014;-70
2023/07/30 05:27:19;;;;;;;2.95;1.88;;;17.70;92.20;;;;;;7389530;19;20022;-70
2023/07/30 05:29:49;;;;;;;2.65;1.90;;;17.70;91.80;;;;;;7390293;19;20035;-70
2023/07/30 05:32:19;;;;;;;2.90;2.10;;;17.60;91.10;;;;;;7389256;19;20018;-69
2023/07/30 05:34:49;;;;;;;1.63;1.52;;;17.70;93.10;;;;;;7388521;19;20028;-69
2023/07/30 05:37:23;;;;;;;2.20;1.88;;;17.60;91.90;;;;;;7390732;19;20014;-69
2023/07/30 05:39:52;;;;;;;1.90;1.70;;;17.60;90.50;;;;;;7389306;19;20100;-69
2023/07/30 05:42:22;;;;;;;5.60;2.00;;;17.60;91.90;;;;;;7390688;19;20010;-69
2023/07/30 05:44:52;;;;;;;2.90;1.90;;;17.70;91.60;;;;;;7390016;19;20100;-70
2023/07/30 05:47:22;;;;;;;2.55;1.50;;;17.70;92.00;;;;;;7389815;19;20074;-69
2023/07/30 05:49:52;;;;;;;2.33;1.50;;;17.70;89.90;;;;;;7389055;19;20059;-69
2023/07/30 05:52:25;;;;;;;2.08;1.55;;;17.70;85.40;;;;;;7389526;19;20372;-69
2023/07/30 05:54:54;;;;;;;1.70;1.50;;;17.70;83.50;;;;;;7388096;19;20031;-69
2023/07/30 05:57:24;;;;;;;2.65;1.67;;;17.80;84.00;;;;;;7389945;19;20006;-69
2023/07/30 05:59:54;;;;;;;2.80;1.90;;;17.80;82.40;;;;;;7388897;19;20018;-69
2023/07/30 06:02:24;;;;;;;4.00;1.40;;;17.80;81.80;;;;;;7389481;19;20011;-69
2023/07/30 06:04:54;;;;;;;2.45;1.48;;;17.80;79.70;;;;;;7389069;19;20106;-69
2023/07/30 06:07:27;;;;;;;3.20;1.60;;;17.70;74.40;;;;;;7389497;19;20007;-69
2023/07/30 06:09:57;;;;;;;1.92;1.30;;;17.70;73.30;;;;;;7388584;19;20479;-69
2023/07/30 06:12:27;;;;;;;16.63;3.30;;;17.80;69.20;;;;;;7389416;19;20036;-70
2023/07/30 06:14:57;;;;;;;1.75;1.20;;;17.80;64.20;;;;;;7387577;19;20044;-69
2023/07/30 06:17:26;;;;;;;1.30;1.20;;;17.80;58.50;;;;;;7389065;19;20023;-69
2023/07/30 06:19:56;;;;;;;3.30;1.48;;;18.00;65.10;;;;;;7388210;19;20025;-69
2023/07/30 06:22:29;;;;;;;2.60;1.20;;;18.00;61.40;;;;;;7389439;19;20011;-69
2023/07/30 06:24:59;;;;;;;2.72;1.30;;;18.10;59.00;;;;;;7388354;19;20082;-70
2023/07/30 06:27:29;;;;;;;2.45;1.30;;;18.10;56.90;;;;;;7389183;19;20380;-70
2023/07/30 06:29:59;;;;;;;3.47;1.00;;;18.20;50.20;;;;;;7387485;19;20371;-70
2023/07/30 06:32:29;;;;;;;1.27;1.10;;;19.40;18.40;;;;;;7395943;19;20014;-70
2023/07/30 06:34:59;;;;;;;1.40;1.30;;;19.20;24.10;;;;;;7393789;19;20025;-70
2023/07/30 06:37:32;;;;;;;1.85;1.30;;;20.20;1.80;;;;;;7394791;19;20018;-70
2023/07/30 06:40:04;;;;;;;2.47;1.27;;;20.90;1.00;;;;;;7395130;19;20022;-70
2023/07/30 06:42:34;;;;;;;2.08;1.25;;;21.40;1.00;;;;;;7396239;19;20019;-70
2023/07/30 06:45:04;;;;;;;1.85;1.25;;;21.20;1.00;;;;;;7395769;19;20343;-70
2023/07/30 06:47:33;;;;;;;1.73;1.20;;;20.40;1.00;;;;;;7394477;19;20021;-71
2023/07/30 06:50:08;;;;;;;1.67;1.00;;;20.40;1.00;;;;;;7395048;19;20023;-71
2023/07/30 06:52:40;;;;;;;1.73;0.90;;;20.10;1.00;;;;;;7395866;19;20511;-69
2023/07/30 06:55:11;;;;;;;1.63;0.95;;;20.20;1.30;;;;;;7393829;19;20007;-70
2023/07/30 06:57:41;;;;;;;2.65;1.05;;;20.00;1.00;;;;;;7394139;19;20454;-71
2023/07/30 07:00:12;;;;;;;2.17;1.15;;;20.20;3.40;;;;;;7394214;19;20027;-71
2023/07/30 07:02:42;;;;;;;1.70;1.20;;;19.90;1.00;;;;;;7395503;19;20499;-69
2023/07/30 07:05:12;;;;;;;9.20;1.30;;;19.80;3.90;;;;;;7394856;19;20019;-71
2023/07/30 07:07:45;;;;;;;1.88;1.10;;;19.80;7.90;;;;;;7395236;19;20014;-71
2023/07/30 07:10:15;;;;;;;1.35;1.23;;;19.70;6.60;;;;;;7394281;19;20023;-71
2023/07/30 07:12:45;;;;;;;2.20;1.15;;;19.70;11.90;;;;;;7395484;19;20021;-71
2023/07/30 07:15:15;;;;;;;1.30;1.10;;;19.70;15.40;;;;;;7393468;19;20018;-71
2023/07/30 07:17:45;;;;;;;3.22;1.70;;;19.60;12.80;;;;;;7395031;19;20020;-71
2023/07/30 07:20:15;;;;;;;2.53;1.50;;;19.60;14.50;;;;;;7393765;19;20038;-71
2023/07/30 07:22:48;;;;;;;8.00;2.72;;;19.60;17.50;;;;;;7395160;19;20035;-71
2023/07/30 07:25:19;;;;;;;1.88;1.20;;;19.60;25.20;;;;;;7394737;19;20018;-72
2023/07/30 07:27:49;;;;;;;3.22;1.73;;;19.50;26.50;;;;;;7395016;19;20375;-71
2023/07/30 07:30:19;;;;;;;3.17;2.10;;;19.60;30.30;;;;;;7393060;19;20074;-71
2023/07/30 07:32:50;;;;;;;3.75;1.75;;;19.60;32.20;;;;;;7394485;19;20037;-69
2023/07/30 07:35:21;;;;;;;3.17;1.73;;;19.50;32.30;;;;;;7392497;19;20042;-71
2023/07/30 07:37:54;;;;;;;2.20;1.60;;;19.40;30.60;;;;;;7394394;19;20022;-70
2023/07/30 07:40:24;;;;;;;2.47;1.88;;;19.40;31.50;;;;;;7392997;19;20774;-71
2023/07/30 07:42:54;;;;;;;2.67;1.83;;;19.40;34.80;;;;;;7393108;19;20021;-69
2023/07/30 07:45:24;;;;;;;5.72;1.67;;;19.30;41.10;;;;;;7394549;19;20034;-72
2023/07/30 07:47:54;;;;;;;2.42;1.80;;;19.30;37.70;;;;;;7394504;19;20034;-69
2023/07/30 07:50:24;;;;;;;3.33;1.70;;;19.20;40.00;;;;;;7392261;19;20014;-69
2023/07/30 07:52:56;;;;;;;2.97;1.73;;;19.00;45.20;;;;;;7393800;19;20031;-70
2023/07/30 07:55:26;;;;;;;2.53;1.80;;;18.80;53.10;;;;;;7392619;19;20015;-69
2023/07/30 07:57:56;;;;;;;1.60;1.38;;;18.70;53.50;;;;;;7393892;19;20422;-70
2023/07/30 08:00:26;;;;;;;2.15;1.60;;;18.40;55.40;;;;;;7390739;19;20085;-69
2023/07/30 08:02:56;;;;;;;1.52;1.42;;;18.40;58.60;;;;;;7393627;19;20093;-70
2023/07/30 08:05:26;;;;;;;2.97;1.63;;;18.40;60.70;;;;;;7392810;19;20018;-70
2023/07/30 08:07:59;;;;;;;2.53;2.00;;;18.50;57.20;;;;;;7393094;19;20479;-70
2023/07/30 08:10:29;;;;;;;2.38;1.70;;;18.60;57.40;;;;;;7392130;19;20054;-70
2023/07/30 08:12:59;;;;;;;1.85;1.73;;;18.80;44.90;;;;;;7393144;19;20082;-70
2023/07/30 08:15:29;;;;;;;3.15;2.13;;;19.00;42.90;;;;;;7392176;19;20034;-70
2023/07/30 08:17:59;;;;;;;4.15;1.80;;;19.00;34.90;;;;;;7392964;19;20028;-70
2023/07/30 08:20:29;;;;;;;2.80;1.70;;;19.00;32.90;;;;;;7390997;19;20018;-70
2023/07/30 08:23:01;;;;;;;4.22;1.75;;;19.20;26.00;;;;;;7392968;19;20050;-70
2023/07/30 08:25:31;;;;;;;2.85;2.03;;;19.30;27.10;;;;;;7392020;19;20027;-71
2023/07/30 08:28:01;;;;;;;2.88;1.80;;;19.40;21.50;;;;;;7392661;19;20375;-69
2023/07/30 08:30:31;;;;;;;2.45;1.95;;;19.50;21.80;;;;;;7390918;19;20011;-71
2023/07/30 08:33:01;;;;;;;2.10;1.60;;;19.80;20.70;;;;;;7392555;19;20490;-71
2023/07/30 08:35:31;;;;;;;3.13;2.08;;;19.90;5.10;;;;;;7391618;19;20377;-69
2023/07/30 08:38:04;;;;;;;2.75;1.65;;;20.00;1.00;;;;;;7392327;19;20015;-70
2023/07/30 08:40:34;;;;;;;3.90;1.75;;;20.00;1.00;;;;;;7391197;19;20081;-70
2023/07/30 08:43:06;;;;;;;2.58;1.65;;;19.80;1.00;;;;;;7392003;19;20015;-70
2023/07/30 08:45:36;;;;;;;3.65;1.85;;;20.00;1.00;;;;;;7393310;19;20027;-70
2023/07/30 08:48:06;;;;;;;2.95;1.90;;;19.90;1.00;;;;;;7392316;19;20037;-71
2023/07/30 08:50:37;;;;;;;2.22;1.75;;;19.90;1.00;;;;;;7391122;19;20689;-70
2023/07/30 08:53:10;;;;;;;2.58;1.58;;;20.00;1.00;;;;;;7389978;19;20391;-70
2023/07/30 08:55:42;;;;;;;2.20;1.58;;;20.10;1.00;;;;;;7390468;19;20031;-70
2023/07/30 08:58:13;;;;;;;2.85;1.50;;;20.10;1.00;;;;;;7391167;19;20019;-70
2023/07/30 09:00:45;;;;;;;2.78;1.88;;;20.20;1.00;;;;;;7390504;19;20014;-71
2023/07/30 09:03:17;;;;;;;1.95;1.60;;;20.40;1.00;;;;;;7391127;19;20031;-71
2023/07/30 09:05:47;;;;;;;2.70;1.70;;;20.50;1.00;;;;;;7391891;19;20018;-71
2023/07/30 09:08:22;;;;;;;5.70;1.67;;;20.80;1.00;;;;;;7390853;19;20048;-71
2023/07/30 09:10:52;;;;;;;3.47;1.50;;;20.80;1.00;;;;;;7390354;19;20014;-71
2023/07/30 09:13:25;;;;;;;2.67;2.00;;;20.90;1.00;;;;;;7389214;19;20010;-71
2023/07/30 09:15:55;;;;;;;3.13;1.50;;;21.10;1.00;;;;;;7390662;19;20049;-71
2023/07/30 09:18:25;;;;;;;1.65;1.50;;;21.20;1.00;;;;;;7390945;19;20014;-71
2023/07/30 09:20:55;;;;;;;1.90;1.50;;;21.00;1.00;;;;;;7389714;19;20011;-71
2023/07/30 09:23:28;;;;;;;2.67;1.88;;;20.90;1.00;;;;;;7388972;19;20038;-71
2023/07/30 09:26:00;;;;;;;1.60;1.40;;;21.30;1.00;;;;;;7390764;19;20360;-70
2023/07/30 09:28:33;;;;;;;2.47;1.60;;;21.20;1.00;;;;;;7390525;19;20031;-70
2023/07/30 09:31:04;;;;;;;2.15;1.50;;;21.30;1.00;;;;;;7388524;19;20479;-70
2023/07/30 09:33:51;;;;;;;4.35;1.65;;;21.10;1.00;;;;;;7388583;19;20014;-70
2023/07/30 09:36:22;;;;;;;2.38;1.55;;;21.00;1.00;;;;;;7389540;19;20014;-69
2023/07/30 09:38:55;;;;;;;3.28;1.50;;;20.70;1.00;;;;;;7390182;19;20043;-70
2023/07/30 09:41:25;;;;;;;2.97;1.70;;;20.90;1.00;;;;;;7385771;19;20648;-70
2023/07/30 09:44:01;;;;;;;6.75;1.92;;;21.00;1.00;;;;;;7389373;19;20031;-70
2023/07/30 09:46:32;;;;;;;3.35;2.05;;;21.10;1.00;;;;;;7392842;19;20041;-70
2023/07/30 09:49:04;;;;;;;2.95;1.60;;;21.20;1.00;;;;;;7389458;19;20018;-70
2023/07/30 09:51:34;;;;;;;3.72;1.70;;;21.60;1.00;;;;;;7387213;19;20392;-70
2023/07/30 09:54:09;;;;;;;2.67;1.92;;;21.10;1.00;;;;;;7389324;19;20017;-70
2023/07/30 09:56:40;;;;;;;2.75;1.70;;;21.00;1.00;;;;;;7388729;19;20035;-70
2023/07/30 09:59:12;;;;;;;3.13;2.00;;;20.70;1.00;;;;;;7389658;19;20032;-70
2023/07/30 10:01:49;;;;;;;2.15;1.70;;;21.30;1.00;;;;;;7387924;19;20070;-70
2023/07/30 10:04:22;;;;;;;2.22;2.03;;;20.80;1.00;;;;;;7388635;19;20764;-69
2023/07/30 10:06:58;;;;;;;2.35;1.67;;;21.00;1.00;;;;;;7388673;19;20019;-70
2023/07/30 10:09:34;;;;;;;2.00;1.80;;;21.30;1.00;;;;;;7389586;19;20038;-70
2023/07/30 10:12:05;;;;;;;6.60;2.10;;;21.20;1.00;;;;;;7387274;19;20041;-70
2023/07/30 10:14:35;;;;;;;3.58;1.88;;;21.20;1.00;;;;;;7388523;19;20037;-69
2023/07/30 10:17:06;;;;;;;4.38;1.98;;;21.10;1.00;;;;;;7388460;19;20019;-70
2023/07/30 10:19:36;;;;;;;3.35;2.17;;;21.10;1.00;;;;;;7388897;19;20474;-70
2023/07/30 10:22:25;;;;;;;2.42;1.70;;;21.70;1.00;;;;;;7388807;19;20014;-71
2023/07/30 10:25:07;;;;;;;4.20;2.33;;;21.60;1.00;;;;;;7388349;19;20010;-71
2023/07/30 10:27:40;;;;;;;3.33;1.70;;;21.50;1.00;;;;;;7388761;19;20019;-70
2023/07/30 10:30:14;;;;;;;3.10;2.13;;;22.10;1.00;;;;;;7388103;19;20020;-71
2023/07/30 10:33:00;;;;;;;2.97;1.90;;;21.70;1.00;;;;;;7388173;19;20528;-71
2023/07/30 10:35:42;;;;;;;3.25;1.90;;;22.00;1.00;;;;;;7388312;19;20038;-71
2023/07/30 10:38:20;;;;;;;3.55;2.03;;;22.40;1.00;;;;;;7387327;19;20022;-71
2023/07/30 10:41:07;;;;;;;3.92;1.80;;;22.10;1.00;;;;;;7388031;19;20352;-70
2023/07/30 10:43:39;;;;;;;2.53;1.90;;;22.30;1.00;;;;;;7388222;19;20015;-71
2023/07/30 10:46:10;;;;;;;2.63;1.90;;;21.80;1.00;;;;;;7390914;19;20010;-70
2023/07/30 10:48:43;;;;;;;4.72;1.92;;;21.90;1.00;;;;;;7388049;19;20033;-70
2023/07/30 10:51:14;;;;;;;2.55;1.80;;;22.30;1.00;;;;;;7386832;19;20502;-70
2023/07/30 10:53:45;;;;;;;2.95;1.75;;;22.10;1.00;;;;;;7387786;19;20032;-70
2023/07/30 10:56:19;;;;;;;7.10;2.22;;;22.80;1.00;;;;;;7388158;19;20038;-71
2023/07/30 10:58:53;;;;;;;2.10;1.50;;;22.80;1.00;;;;;;7385644;19;20035;-70
2023/07/30 11:01:26;;;;;;;3.33;1.83;;;22.80;1.00;;;;;;7386580;19;20015;-70
2023/07/30 11:03:56;;;;;;;2.63;1.80;;;21.80;1.00;;;;;;7387577;19;20031;-71
2023/07/30 11:06:27;;;;;;;2.50;1.70;;;21.50;1.00;;;;;;7388454;19;20018;-71
2023/07/30 11:08:57;;;;;;;5.30;1.90;;;21.20;1.00;;;;;;7387764;19;20478;-70
2023/07/30 11:11:29;;;;;;;3.67;2.38;;;21.10;1.00;;;;;;7384303;19;20703;-71
2023/07/30 11:14:01;;;;;;;2.42;1.90;;;21.70;1.00;;;;;;7387316;19;20018;-71
2023/07/30 11:16:31;;;;;;;3.60;2.10;;;20.90;1.00;;;;;;7406692;19;20018;-71
2023/07/30 11:19:11;;;;;;;3.10;1.80;;;20.70;1.00;;;;;;7421614;19;20042;-69
2023/07/30 11:21:47;;;;;;;2.55;1.90;;;20.50;1.00;;;;;;7408412;19;20271;-70
2023/07/30 11:24:20;;;;;;;3.08;1.92;;;20.20;1.00;;;;;;7396378;19;20014;-71
2023/07/30 11:27:02;;;;;;;3.45;1.92;;;20.20;1.00;;;;;;7395455;19;20039;-71
2023/07/30 11:29:33;;;;;;;3.33;2.08;;;19.70;1.00;;;;;;7394871;19;20030;-71
2023/07/30 11:32:04;;;;;;;3.55;1.70;;;19.50;1.00;;;;;;7394852;19;20524;-72
2023/07/30 11:34:38;;;;;;;2.08;1.83;;;20.00;1.00;;;;;;7394688;19;20091;-71
2023/07/30 11:37:09;;;;;;;4.20;2.13;;;20.20;1.00;;;;;;7394441;19;20037;-71
2023/07/30 11:39:39;;;;;;;4.00;2.42;;;20.50;1.00;;;;;;7393572;19;20482;-72
2023/07/30 11:42:14;;;;;;;3.15;2.08;;;20.30;1.00;;;;;;7394496;19;20010;-72
2023/07/30 11:44:44;;;;;;;3.63;1.95;;;20.70;1.00;;;;;;7392222;19;20041;-73
2023/07/30 11:47:23;;;;;;;3.08;1.67;;;20.70;1.00;;;;;;7397299;19;20015;-71
2023/07/30 11:50:00;;;;;;;3.10;1.77;;;21.30;1.00;;;;;;7393187;19;20018;-72
2023/07/30 11:52:30;;;;;;;3.53;1.77;;;21.60;1.00;;;;;;7393894;19;20018;-71
2023/07/30 11:55:03;;;;;;;2.22;1.70;;;21.60;1.00;;;;;;7393341;19;20025;-71
2023/07/30 11:57:39;;;;;;;3.03;1.63;;;21.70;1.00;;;;;;7393147;19;20114;-71
2023/07/30 12:00:11;;;;;;;2.97;1.73;;;21.70;1.00;;;;;;7392205;19;20015;-71
2023/07/30 12:02:41;;;;;;;2.67;1.45;;;21.70;1.00;;;;;;7393482;19;20015;-72
2023/07/30 12:05:13;;;;;;;4.82;1.88;;;21.80;1.00;;;;;;7392987;19;20018;-70
2023/07/30 12:07:44;;;;;;;4.07;1.88;;;21.90;1.00;;;;;;7393463;19;20558;-72
2023/07/30 12:10:15;;;;;;;4.07;1.60;;;22.30;1.00;;;;;;7392657;19;20482;-72
2023/07/30 12:12:54;;;;;;;3.83;1.63;;;21.80;1.00;;;;;;7393417;19;20541;-70
2023/07/30 12:15:24;;;;;;;1.92;1.50;;;21.60;1.00;;;;;;7392055;19;20538;-71
2023/07/30 12:17:54;;;;;;;2.92;1.48;;;22.70;1.00;;;;;;7392751;19;20553;-71
2023/07/30 12:20:24;;;;;;;1.85;1.48;;;22.60;1.00;;;;;;7390383;19;20010;-71
2023/07/30 12:22:54;;;;;;;2.28;1.65;;;22.40;1.00;;;;;;7393353;19;20016;-71
2023/07/30 12:25:24;;;;;;;3.25;1.75;;;22.30;1.00;;;;;;7392638;19;20018;-71
2023/07/30 12:27:56;;;;;;;3.33;1.65;;;21.70;1.00;;;;;;7393750;19;20370;-72
2023/07/30 12:30:27;;;;;;;3.95;1.50;;;21.70;1.00;;;;;;7390197;19;20085;-71
2023/07/30 12:32:57;;;;;;;3.45;1.63;;;21.50;1.00;;;;;;7392856;19;20014;-71
2023/07/30 12:35:27;;;;;;;7.28;1.92;;;21.60;1.00;;;;;;7392441;19;20017;-72
2023/07/30 12:37:57;;;;;;;2.67;1.33;;;21.90;1.00;;;;;;7392116;19;20034;-71
2023/07/30 12:40:29;;;;;;;4.60;1.70;;;22.20;1.00;;;;;;7392251;19;20014;-71
2023/07/30 12:43:04;;;;;;;4.03;1.60;;;22.80;1.00;;;;;;7393047;19;20011;-72
2023/07/30 12:45:34;;;;;;;1.90;1.40;;;22.70;1.00;;;;;;7393025;19;20462;-72
2023/07/30 12:48:04;;;;;;;3.13;1.33;;;22.80;1.00;;;;;;7392605;19;20034;-71
2023/07/30 12:50:34;;;;;;;2.00;1.40;;;22.50;1.00;;;;;;7391335;19;20014;-71
2023/07/30 12:53:04;;;;;;;2.03;1.42;;;21.90;1.00;;;;;;7392014;19;20801;-70
2023/07/30 12:55:34;;;;;;;1.25;1.10;;;22.80;1.00;;;;;;7392507;19;20014;-71
2023/07/30 12:58:07;;;;;;;1.77;1.38;;;23.10;1.00;;;;;;7392190;19;20007;-70
2023/07/30 13:00:37;;;;;;;4.40;1.42;;;22.70;1.00;;;;;;7390905;19;20014;-70
2023/07/30 13:03:07;;;;;;;2.90;1.10;;;22.70;1.00;;;;;;7392411;19;20082;-70
2023/07/30 13:05:37;;;;;;;2.17;1.30;;;22.90;1.00;;;;;;7391723;19;20010;-71
2023/07/30 13:08:07;;;;;;;1.92;1.20;;;21.80;1.00;;;;;;7392001;19;20014;-71
2023/07/30 13:10:37;;;;;;;2.05;1.33;;;21.90;1.00;;;;;;7390567;19;20015;-71